createdAt,value
2022-10-24T00:03:28.682Z,17.46
2022-10-24T00:08:30.470Z,17.46
2022-10-24T00:13:32.093Z,17.42
2022-10-24T00:18:33.881Z,17.28
2022-10-24T00:23:36.461Z,17.35
2022-10-24T00:28:39.832Z,17.37
2022-10-24T00:33:43.188Z,17.40
2022-10-24T00:38:45.332Z,17.45
2022-10-24T00:43:47.621Z,17.46
2022-10-24T00:48:53.913Z,17.46
2022-10-24T00:54:06.217Z,17.49
2022-10-24T00:59:10.847Z,17.54
2022-10-24T01:04:13.540Z,17.58
2022-10-24T01:09:30.321Z,17.59
2022-10-24T01:14:50.066Z,17.58
2022-10-24T01:20:01.058Z,17.57
2022-10-24T01:25:23.817Z,17.55
2022-10-24T01:30:29.524Z,17.57
2022-10-24T01:35:58.694Z,17.53
2022-10-24T01:41:10.409Z,17.49
2022-10-24T01:46:18.151Z,17.49
2022-10-24T01:51:24.471Z,17.47
2022-10-24T01:56:26.746Z,17.45
2022-10-24T02:01:29.075Z,17.47
2022-10-24T02:06:35.176Z,17.48
2022-10-24T02:11:37.951Z,17.49
2022-10-24T02:16:40.789Z,17.49
2022-10-24T02:22:01.220Z,17.51
2022-10-24T02:27:10.165Z,17.53
2022-10-24T02:32:27.366Z,17.53
2022-10-24T02:37:32.329Z,17.54
2022-10-24T02:42:36.025Z,17.54
2022-10-24T02:47:40.501Z,17.55
2022-10-24T02:52:43.716Z,17.56
2022-10-24T02:57:45.867Z,17.56
2022-10-24T03:02:47.652Z,17.57
2022-10-24T03:07:49.906Z,17.57
2022-10-24T03:12:52.078Z,17.51
2022-10-24T03:17:54.306Z,17.47
2022-10-24T03:22:55.919Z,17.44
2022-10-24T03:27:57.486Z,17.44
2022-10-24T03:32:59.315Z,17.46
2022-10-24T03:38:01.146Z,17.46
2022-10-24T03:43:03.369Z,17.46
2022-10-24T03:48:06.220Z,17.44
2022-10-24T03:53:07.855Z,17.43
2022-10-24T03:58:09.706Z,17.42
2022-10-24T04:03:12.051Z,17.41
2022-10-24T04:08:13.896Z,17.40
2022-10-24T04:13:15.664Z,17.40
2022-10-24T04:18:17.252Z,17.39
2022-10-24T04:23:18.906Z,17.37
2022-10-24T04:28:20.485Z,17.36
2022-10-24T04:33:22.279Z,17.32
2022-10-24T04:38:24.218Z,17.28
2022-10-24T04:43:27.258Z,17.27
2022-10-24T04:48:29.158Z,17.24
2022-10-24T04:53:30.821Z,17.21
2022-10-24T04:58:32.505Z,17.19
2022-10-24T05:03:34.156Z,17.09
2022-10-24T05:08:36.306Z,17.00
2022-10-24T05:13:40.226Z,16.94
2022-10-24T05:18:41.847Z,16.96
2022-10-24T05:23:43.448Z,16.99
2022-10-24T05:28:48.832Z,16.98
2022-10-24T05:33:53.910Z,16.88
2022-10-24T05:38:56.360Z,16.80
2022-10-24T05:43:58.114Z,16.82
2022-10-24T05:48:59.953Z,16.87
2022-10-24T05:54:01.948Z,16.88
2022-10-24T05:59:04.165Z,16.91
2022-10-24T06:04:07.807Z,16.87
2022-10-24T06:09:12.544Z,16.83
2022-10-24T06:14:14.230Z,16.85
2022-10-24T06:19:15.787Z,16.88
2022-10-24T06:24:17.419Z,16.90
2022-10-24T06:29:19.088Z,16.88
2022-10-24T06:39:27.628Z,16.87
2022-10-24T06:44:29.266Z,16.86
2022-10-24T06:49:30.902Z,16.89
2022-10-24T06:54:33.712Z,16.88
2022-10-24T06:59:35.398Z,16.88
2022-10-24T07:04:37.221Z,16.87
2022-10-24T07:09:38.845Z,16.86
2022-10-24T07:14:40.457Z,16.90
2022-10-24T07:19:42.352Z,16.94
2022-10-24T07:24:43.917Z,17.01
2022-10-24T07:29:46.846Z,17.05
2022-10-24T07:34:48.789Z,17.07
2022-10-24T07:39:50.636Z,17.07
2022-10-24T07:44:52.266Z,17.08
2022-10-24T07:49:53.872Z,17.08
2022-10-24T07:54:56.039Z,17.08
2022-10-24T07:59:57.801Z,17.02
2022-10-24T08:04:59.901Z,17.01
2022-10-24T08:10:01.953Z,17.05
2022-10-24T08:15:04.246Z,17.09
2022-10-24T08:20:07.870Z,17.14
2022-10-24T08:25:11.334Z,17.18
2022-10-24T08:30:13.262Z,17.20
2022-10-24T08:35:19.647Z,17.22
2022-10-24T08:40:21.547Z,17.26
2022-10-24T08:45:33.347Z,17.28
2022-10-24T08:50:36.026Z,17.33
2022-10-24T08:55:49.648Z,17.37
2022-10-24T09:00:55.639Z,17.42
2022-10-24T09:06:08.049Z,17.50
2022-10-24T09:11:15.916Z,17.57
2022-10-24T09:16:21.695Z,17.64
2022-10-24T09:21:24.023Z,17.70
2022-10-24T09:26:29.994Z,17.75
2022-10-24T09:31:31.894Z,17.80
2022-10-24T09:36:33.566Z,17.89
2022-10-24T09:41:36.394Z,17.98
2022-10-24T09:46:45.903Z,18.05
2022-10-24T09:51:51.401Z,18.11
2022-10-24T09:56:58.839Z,18.17
2022-10-24T10:02:24.257Z,18.21
2022-10-24T10:07:28.258Z,18.24
2022-10-24T10:12:32.859Z,18.26
2022-10-24T10:17:34.491Z,18.31
2022-10-24T10:22:36.189Z,18.32
2022-10-24T10:27:41.061Z,18.32
2022-10-24T10:32:51.997Z,18.29
2022-10-24T10:38:16.116Z,18.26
2022-10-24T10:43:33.155Z,18.24
2022-10-24T10:48:43.770Z,18.25
2022-10-24T10:53:54.367Z,18.22
2022-10-24T10:59:32.559Z,18.19
2022-10-24T11:04:52.696Z,18.17
2022-10-24T11:09:59.279Z,18.16
2022-10-24T11:15:07.895Z,18.15
2022-10-24T11:20:21.933Z,18.12
2022-10-24T11:25:28.160Z,18.11
2022-10-24T11:30:42.425Z,18.06
2022-10-24T11:36:06.387Z,18.03
2022-10-24T11:41:27.220Z,17.91
2022-10-24T11:46:41.296Z,17.82
2022-10-24T11:51:47.406Z,17.74
2022-10-24T11:56:55.110Z,17.65
2022-10-24T12:02:30.930Z,17.60
2022-10-24T12:07:54.896Z,17.59
2022-10-24T12:13:05.720Z,17.63
2022-10-24T12:18:25.018Z,17.66
2022-10-24T12:23:27.939Z,17.70
2022-10-24T12:28:31.293Z,17.73
2022-10-24T12:33:32.893Z,17.77
2022-10-24T12:38:56.949Z,17.78
2022-10-24T12:44:35.110Z,17.79
2022-10-24T12:49:36.679Z,17.74
2022-10-24T12:54:44.213Z,17.69
2022-10-24T12:59:49.124Z,17.71
2022-10-24T13:05:18.583Z,17.70
2022-10-24T13:10:39.056Z,17.68
2022-10-24T13:15:54.378Z,17.65
2022-10-24T13:21:24.272Z,17.69
2022-10-24T13:26:37.752Z,17.67
2022-10-24T13:31:42.307Z,17.48
2022-10-24T13:36:47.492Z,17.49
2022-10-24T13:41:56.218Z,17.47
2022-10-24T13:47:03.829Z,17.48
2022-10-24T13:52:19.203Z,17.48
2022-10-24T13:57:34.262Z,17.50
2022-10-24T14:02:41.901Z,17.55
2022-10-24T14:07:44.897Z,17.60
2022-10-24T14:12:47.689Z,17.60
2022-10-24T14:17:55.074Z,17.61
2022-10-24T14:22:59.461Z,17.60
2022-10-24T14:28:09.391Z,17.60
2022-10-24T14:33:14.100Z,17.64
2022-10-24T14:38:17.394Z,17.66
2022-10-24T14:43:23.739Z,17.64
2022-10-24T14:48:27.453Z,17.64
2022-10-24T14:53:29.328Z,17.65
2022-10-24T14:58:33.929Z,17.67
2022-10-24T15:03:57.457Z,17.64
2022-10-24T15:09:26.387Z,17.57
2022-10-24T15:14:32.449Z,17.54
2022-10-24T15:19:38.631Z,17.51
2022-10-24T15:24:44.140Z,17.47
2022-10-24T15:29:46.056Z,17.47
2022-10-24T15:34:47.743Z,17.47
2022-10-24T15:39:49.942Z,17.43
2022-10-24T15:44:51.590Z,17.40
2022-10-24T15:49:53.346Z,17.39
2022-10-24T15:54:54.972Z,17.39
2022-10-24T15:59:57.744Z,17.41
2022-10-24T16:04:59.366Z,17.40
2022-10-24T16:10:01.033Z,17.35
2022-10-24T16:15:03.539Z,17.32
2022-10-24T16:20:07.026Z,17.30
2022-10-24T16:25:15.753Z,17.33
2022-10-24T16:30:20.653Z,17.32
2022-10-24T16:35:26.049Z,17.35
2022-10-24T16:40:29.300Z,17.31
2022-10-24T16:45:31.308Z,17.28
2022-10-24T16:50:33.202Z,17.21
2022-10-24T16:55:35.999Z,17.19
2022-10-24T17:00:37.812Z,17.17
2022-10-24T17:05:43.139Z,17.12
2022-10-24T17:10:44.834Z,17.05
2022-10-24T17:15:47.090Z,17.00
2022-10-24T17:20:50.282Z,16.95
2022-10-24T17:25:52.849Z,16.92
2022-10-24T17:30:56.186Z,16.85
2022-10-24T17:36:00.182Z,16.76
2022-10-24T17:41:19.735Z,16.74
2022-10-24T17:46:23.283Z,16.71
2022-10-24T17:51:27.384Z,16.65
2022-10-24T17:56:31.915Z,16.59
2022-10-24T18:01:35.173Z,16.56
2022-10-24T18:06:40.777Z,16.50
2022-10-24T18:11:43.885Z,16.45
2022-10-24T18:16:47.480Z,16.41
2022-10-24T18:21:50.282Z,16.36
2022-10-24T18:26:51.909Z,16.37
2022-10-24T18:31:55.756Z,16.37
2022-10-24T18:36:57.841Z,16.36
2022-10-24T18:42:16.199Z,16.36
2022-10-24T18:47:21.968Z,16.33
2022-10-24T18:52:39.897Z,16.32
2022-10-24T18:57:43.448Z,16.34
2022-10-24T19:02:56.807Z,16.34
2022-10-24T19:07:59.651Z,16.31
2022-10-24T19:13:01.311Z,16.27
2022-10-24T19:18:03.088Z,16.25
2022-10-24T19:23:06.353Z,16.27
2022-10-24T19:28:10.638Z,16.29
2022-10-24T19:33:17.158Z,16.29
2022-10-24T19:38:19.486Z,16.27
2022-10-24T19:43:23.121Z,16.24
2022-10-24T19:48:25.631Z,16.22
2022-10-24T19:53:27.455Z,16.24
2022-10-24T19:58:29.795Z,16.27
2022-10-24T20:03:33.187Z,16.27
2022-10-24T20:08:35.634Z,16.29
2022-10-24T20:13:37.555Z,16.29
2022-10-24T20:23:49.627Z,16.17
2022-10-24T20:28:53.831Z,16.09
2022-10-24T20:34:06.861Z,16.01
2022-10-24T20:39:11.005Z,15.96
2022-10-24T20:44:14.776Z,15.91
2022-10-24T20:49:16.377Z,15.88
2022-10-24T20:54:18.942Z,15.88
2022-10-24T20:59:20.562Z,15.87
2022-10-24T21:04:22.175Z,15.87
2022-10-24T21:09:24.095Z,15.92
2022-10-24T21:14:25.775Z,15.94
2022-10-24T21:19:27.422Z,15.96
2022-10-24T21:24:31.719Z,15.97
2022-10-24T21:29:34.601Z,15.97
2022-10-24T21:34:36.567Z,15.94
2022-10-24T21:39:38.344Z,15.89
2022-10-24T21:44:40.081Z,15.85
2022-10-24T21:49:43.695Z,15.84
2022-10-24T21:54:45.314Z,15.80
2022-10-24T21:59:47.184Z,15.78
2022-10-24T22:04:48.953Z,15.77
2022-10-24T22:09:50.606Z,15.75
2022-10-24T22:14:52.793Z,15.68
2022-10-24T22:19:54.437Z,15.63
2022-10-24T22:24:56.068Z,15.64
2022-10-24T22:30:01.770Z,15.65
2022-10-24T22:35:04.086Z,15.63
2022-10-24T22:40:19.372Z,15.60
2022-10-24T22:45:21.947Z,15.62
2022-10-24T22:50:49.623Z,15.62
2022-10-24T22:55:57.815Z,15.62
2022-10-24T23:01:15.911Z,15.67
2022-10-24T23:06:36.743Z,15.71
2022-10-24T23:11:40.088Z,15.72
2022-10-24T23:16:53.419Z,15.71
2022-10-24T23:21:55.571Z,15.68
2022-10-24T23:27:06.345Z,15.67
2022-10-24T23:32:16.169Z,15.69
2022-10-24T23:37:29.257Z,15.70
2022-10-24T23:42:31.146Z,15.67
2022-10-24T23:48:05.504Z,15.64
2022-10-24T23:53:23.881Z,15.61
2022-10-24T23:58:25.489Z,15.61
